Crawford, GA (30630)

09:36 AM EDT am 26. Mai 2015 (GMT -0400)
Wyndfield | | Change Station
CLOSE
Current Station
Persönliche Wetterstationen
Location: Athens-Clarke County, GA
Höhe: 647 ft
Wetterstationen in der Umgebung

Höhe 647 ft 33.91 °N, 83.30 °W | Updated 43 seconds ago

Bedeckt
Bedeckt
73.9 °F
gefühlte 76 °F
N
0.0
Wind Wechselnd Wind aus Ost-Südost
Gusts 0.0 mph

Heute
Max. -- | schwach -- °F
--% Regenrisiko
Gestern
Max. -- | schwach -- °F
Precip. -- inch
6:25 AM 8:34 PM
Erstes Viertel, 58% visible
Druck 30.25 inch
Sichtweite 10.0 Meilen
Wolken Teils Wolkig 1200 ft
Bedeckt 1800 ft
Hitzeindex 76 °F
Taupunkt 33 °F
Feuchtigkeit 22%
Regen 0.00 inch
Schneehöhe Nicht verfügbar..
UV 1 von 12
Pollen .80 von 12
Luftqualität Nicht verfügbar..
Flu Activity Sporadic
METAR KAHN 261251Z VRB03KT 10SM SCT012 OVC018 23/20 A3027 RMK AO2 SLP244 T02280200

More Conditions Fewer Conditions

Druck 30.25 inch
Sichtweite 10.0 Meilen
Wolken Teils Wolkig 1200 ft
Bedeckt 1800 ft
Hitzeindex 76 °F
Taupunkt 33 °F
Feuchtigkeit 22%
Regen 0.00 inch
Schneehöhe Nicht verfügbar..
UV 1 von 12
Pollen .80 von 12
Luftqualität Nicht verfügbar..
Flu Activity Sporadic
METAR KAHN 261251Z VRB03KT 10SM SCT012 OVC018 23/20 A3027 RMK AO2 SLP244 T02280200

More Conditions Fewer Conditions

10-Day Weather Forecast

Almanac

Astronomie

May. 26, 2015 Aufgang Untergang
Genaue Zeit
Bürgerliche Dämmerung
Nautische Dämmerung
Astronomische Dämmerung
Mond
Länge des sichtbaren Lichts
Tageslänge
Tomorrow will be .
, % of the Moon is Illuminated

Heutige Rekorde

State Highs State Lows

Community

WunderPhotos

Upload Photos

1,824,342 Fotos hochgeladen!

WunderBlogs® & News

Nearby

Luftqualität

  Luftqualität LQ Index Schadstoff
Not available.

Schneehöhe

Station Depth Höhe

Erdbebenaktivität

Stadt Distance Mag. Time & Date
Minimum magnitude displayed is 2.5.

küstennahe Wassertemperaturen

Ort Temperatur

Stations

Wetterstationen in der Umgebung

Stationsstandort Temp. Windchill Taupunkt Feuchtigkeit Wind Precip. Höhe Aktualisiert Art